Decoded Metar for YCDU ( in ) (IATA:) | Meteo·Mobile Aviation Weather
aviador You're here:

YCDU Decoded Metar

in
Report Time2019-01-17 23:00:00
UTC Time2019-01-17 23:26:00
Flight Rules unknown UNKNOWN
Wind110° at 16 kt
W.Decomp.*RWY 11: 16.0 kt HW -0 kt LCW
RWY 17: 8.0 kt HW 13.9 kt LCW
W.Rank110° ranks 23
Current wind is above 110° avg. (7.2)
VisibilityN/A
Phenomena:N/A
Clouds:N/A
Expected CloudBase > 800 ft AGL from Temp-Dew spread
CeilingNone
Temp20°C
Dew Point18°C (88% RH)
AAT17.0°C
QNH1011 hPa
Raw Report
METAR YCDU 172300Z AUTO 11016KT //// // NCD 20/18 Q1011=

Extra information for YCDU:More info

Social comments